createdAt,value
2018-04-16T00:01:50.322Z,14.10
2018-04-16T00:04:17.913Z,14.00
2018-04-16T00:06:45.509Z,14.00
2018-04-16T00:09:13.108Z,14.00
2018-04-16T00:11:40.699Z,14.00
2018-04-16T00:14:08.301Z,13.90
2018-04-16T00:16:36.659Z,13.80
2018-04-16T00:19:04.321Z,13.80
2018-04-16T00:21:32.025Z,13.70
2018-04-16T00:23:59.633Z,13.60
2018-04-16T00:26:27.259Z,13.60
2018-04-16T00:28:54.860Z,13.50
2018-04-16T00:31:22.457Z,13.50
2018-04-16T00:33:56.408Z,13.40
2018-04-16T00:36:29.580Z,13.40
2018-04-16T00:39:03.438Z,13.30
2018-04-16T00:41:36.694Z,13.20
2018-04-16T00:44:09.889Z,13.20
2018-04-16T00:46:43.097Z,13.10
2018-04-16T00:49:16.353Z,13.00
2018-04-16T00:51:50.294Z,12.80
2018-04-16T00:54:23.630Z,12.80
2018-04-16T00:56:56.772Z,12.80
2018-04-16T00:59:30.059Z,12.70
2018-04-16T01:02:03.983Z,12.70
2018-04-16T01:04:50.286Z,12.60
2018-04-16T01:07:23.420Z,12.70
2018-04-16T01:09:56.515Z,12.70
2018-04-16T01:12:29.660Z,12.70
2018-04-16T01:18:19.885Z,12.80
2018-04-16T01:20:53.115Z,12.80
2018-04-16T01:23:27.137Z,13.00
2018-04-16T01:26:00.292Z,12.90
2018-04-16T01:28:33.662Z,13.10
2018-04-16T01:31:06.949Z,13.10
2018-04-16T01:33:49.432Z,13.20
2018-04-16T01:36:22.615Z,13.20
2018-04-16T01:38:56.011Z,13.30
2018-04-16T01:41:29.894Z,13.40
2018-04-16T01:44:14.966Z,13.50
2018-04-16T01:46:49.814Z,13.50
2018-04-16T01:49:22.990Z,13.50
2018-04-16T01:51:56.110Z,13.50
2018-04-16T01:54:29.347Z,13.50
2018-04-16T01:57:02.557Z,13.50
2018-04-16T01:59:35.730Z,13.60
2018-04-16T02:02:09.017Z,13.60
2018-04-16T02:04:42.226Z,13.60
2018-04-16T02:07:15.523Z,13.60
2018-04-16T02:09:48.611Z,13.60
2018-04-16T02:12:21.737Z,13.50
2018-04-16T02:14:54.918Z,13.50
2018-04-16T02:17:28.926Z,13.40
2018-04-16T02:20:02.962Z,13.40
2018-04-16T02:22:36.144Z,13.40
2018-04-16T02:25:09.346Z,13.40
2018-04-16T02:27:53.936Z,13.40
2018-04-16T02:30:27.110Z,13.30
2018-04-16T02:33:00.287Z,13.30
2018-04-16T02:35:33.457Z,13.30
2018-04-16T02:38:07.436Z,13.30
2018-04-16T02:40:52.919Z,13.30
2018-04-16T02:43:26.077Z,13.30
2018-04-16T02:45:59.292Z,13.30
2018-04-16T02:48:32.612Z,13.30
2018-04-16T02:51:05.896Z,13.30
2018-04-16T02:53:39.135Z,13.30
2018-04-16T02:56:12.435Z,13.20
2018-04-16T02:58:45.558Z,13.20
2018-04-16T03:01:18.708Z,13.20
2018-04-16T03:03:52.536Z,13.20
2018-04-16T03:06:25.847Z,13.20
2018-04-16T03:08:59.136Z,13.20
2018-04-16T03:11:32.293Z,13.20
2018-04-16T03:14:05.524Z,13.20
2018-04-16T03:16:38.707Z,13.20
2018-04-16T03:19:11.925Z,13.10
2018-04-16T03:21:45.119Z,13.10
2018-04-16T03:24:18.331Z,13.10
2018-04-16T03:26:51.518Z,13.00
2018-04-16T03:29:24.798Z,13.00
2018-04-16T03:31:57.978Z,13.00
2018-04-16T03:34:31.197Z,12.90
2018-04-16T03:40:19.563Z,12.80
2018-04-16T03:42:53.546Z,12.70
2018-04-16T03:45:26.879Z,12.60
2018-04-16T03:48:00.895Z,12.60
2018-04-16T03:50:34.045Z,12.60
2018-04-16T03:53:07.170Z,12.50
2018-04-16T03:55:41.031Z,12.50
2018-04-16T03:58:09.383Z,12.50
2018-04-16T04:00:37.001Z,12.40
2018-04-16T04:03:04.611Z,12.40
2018-04-16T04:05:32.244Z,12.40
2018-04-16T04:07:59.861Z,12.50
2018-04-16T04:10:28.243Z,12.40
2018-04-16T04:12:55.885Z,12.40
2018-04-16T04:15:23.487Z,12.40
2018-04-16T04:17:51.099Z,12.40
2018-04-16T04:20:19.489Z,12.30
2018-04-16T04:22:59.622Z,12.30
2018-04-16T04:25:39.964Z,12.30
2018-04-16T04:28:19.416Z,12.30
2018-04-16T04:30:46.998Z,12.20
2018-04-16T04:33:15.346Z,12.20
2018-04-16T04:35:42.962Z,12.20
2018-04-16T04:38:10.571Z,12.20
2018-04-16T04:40:38.173Z,12.20
2018-04-16T04:43:06.537Z,12.10
2018-04-16T04:45:34.927Z,12.00
2018-04-16T04:48:03.280Z,11.90
2018-04-16T04:50:30.955Z,11.90
2018-04-16T04:52:58.589Z,11.90
2018-04-16T04:55:26.210Z,11.90
2018-04-16T04:57:54.585Z,11.70
2018-04-16T05:00:22.597Z,11.70
2018-04-16T05:02:51.045Z,11.70
2018-04-16T05:05:18.730Z,11.60
2018-04-16T05:07:47.101Z,11.60
2018-04-16T05:10:15.489Z,11.50
2018-04-16T05:12:43.962Z,11.50
2018-04-16T05:15:11.609Z,11.40
2018-04-16T05:17:39.215Z,11.40
2018-04-16T05:20:07.579Z,11.40
2018-04-16T05:22:35.943Z,11.40
2018-04-16T05:25:03.555Z,11.40
2018-04-16T05:27:31.199Z,11.40
2018-04-16T05:30:00.481Z,11.40
2018-04-16T05:32:28.863Z,11.40
2018-04-16T05:34:56.517Z,11.50
2018-04-16T05:37:24.297Z,11.60
2018-04-16T05:39:52.695Z,11.90
2018-04-16T05:42:20.311Z,11.80
2018-04-16T05:44:47.919Z,12.00
2018-04-16T05:47:15.539Z,12.00
2018-04-16T05:49:43.124Z,12.10
2018-04-16T05:52:10.763Z,12.10
2018-04-16T05:54:38.374Z,12.20
2018-04-16T05:57:06.034Z,12.20
2018-04-16T05:59:33.632Z,12.30
2018-04-16T06:02:02.015Z,12.40
2018-04-16T06:04:29.622Z,12.40
2018-04-16T06:06:57.246Z,12.40
2018-04-16T06:09:24.845Z,12.50
2018-04-16T06:11:52.456Z,12.60
2018-04-16T06:14:20.053Z,12.60
2018-04-16T06:16:48.424Z,12.70
2018-04-16T06:19:16.015Z,12.60
2018-04-16T06:21:43.619Z,12.70
2018-04-16T06:24:11.223Z,12.70
2018-04-16T06:26:39.610Z,12.80
2018-04-16T06:29:07.988Z,12.80
2018-04-16T06:31:36.401Z,12.80
2018-04-16T06:34:04.785Z,12.80
2018-04-16T06:36:32.368Z,12.90
2018-04-16T06:38:59.937Z,12.90
2018-04-16T06:41:27.561Z,12.90
2018-04-16T06:43:55.894Z,12.90
2018-04-16T06:46:23.526Z,12.90
2018-04-16T06:48:51.171Z,12.90
2018-04-16T06:51:19.560Z,13.00
2018-04-16T06:53:47.916Z,13.10
2018-04-16T06:56:15.930Z,13.10
2018-04-16T06:58:43.534Z,13.20
2018-04-16T07:01:11.204Z,13.30
2018-04-16T07:03:38.851Z,13.30
2018-04-16T07:06:06.491Z,13.50
2018-04-16T07:08:34.081Z,13.50
2018-04-16T07:11:01.722Z,13.50
2018-04-16T07:13:29.347Z,13.40
2018-04-16T07:15:56.991Z,13.50
2018-04-16T07:18:25.314Z,13.60
2018-04-16T07:20:52.899Z,13.60
2018-04-16T07:23:20.505Z,13.70
2018-04-16T07:25:48.123Z,13.70
2018-04-16T07:28:15.696Z,13.70
2018-04-16T07:30:44.180Z,13.80
2018-04-16T07:33:11.773Z,14.00
2018-04-16T07:35:39.364Z,14.10
2018-04-16T07:38:06.968Z,14.10
2018-04-16T07:40:35.335Z,14.30
2018-04-16T07:43:03.701Z,14.40
2018-04-16T07:45:31.303Z,14.40
2018-04-16T07:47:58.919Z,14.60
2018-04-16T07:50:26.557Z,14.80
2018-04-16T07:52:54.137Z,14.90
2018-04-16T07:55:21.761Z,15.00
2018-04-16T07:57:49.347Z,15.00
2018-04-16T08:00:17.798Z,14.80
2018-04-16T08:02:45.384Z,14.90
2018-04-16T08:05:13.036Z,15.00
2018-04-16T08:07:40.631Z,14.90
2018-04-16T08:10:08.282Z,14.80
2018-04-16T08:12:35.925Z,14.70
2018-04-16T08:15:03.507Z,14.80
2018-04-16T08:17:31.926Z,15.00
2018-04-16T08:19:59.506Z,15.00
2018-04-16T08:22:27.077Z,15.20
2018-04-16T08:24:54.687Z,15.30
2018-04-16T08:27:23.041Z,15.60
2018-04-16T08:29:50.722Z,15.60
2018-04-16T08:32:18.356Z,15.70
2018-04-16T08:34:45.953Z,15.80
2018-04-16T08:37:13.564Z,16.00
2018-04-16T08:39:41.156Z,16.10
2018-04-16T08:42:08.760Z,16.20
2018-04-16T08:44:37.110Z,16.30
2018-04-16T08:47:04.720Z,16.30
2018-04-16T08:49:32.409Z,16.30
2018-04-16T08:52:00.023Z,16.40
2018-04-16T08:54:27.666Z,16.50
2018-04-16T08:56:55.237Z,16.70
2018-04-16T08:59:22.840Z,16.80
2018-04-16T09:01:50.491Z,17.00
2018-04-16T09:04:18.986Z,17.00
2018-04-16T09:06:47.355Z,17.00
2018-04-16T09:09:14.973Z,17.00
2018-04-16T09:11:42.591Z,17.10
2018-04-16T09:14:11.585Z,17.30
2018-04-16T09:16:39.819Z,17.30
2018-04-16T09:19:07.403Z,17.20
2018-04-16T09:21:34.985Z,17.10
2018-04-16T09:24:02.584Z,16.90
2018-04-16T09:26:30.945Z,17.10
2018-04-16T09:28:58.554Z,17.10
2018-04-16T09:31:26.738Z,17.10
2018-04-16T09:33:54.316Z,17.00
2018-04-16T09:36:22.004Z,17.00
2018-04-16T09:38:49.556Z,16.90
2018-04-16T09:41:17.130Z,17.00
2018-04-16T09:43:44.688Z,17.10
2018-04-16T09:46:13.170Z,17.20
2018-04-16T09:48:40.872Z,17.10
2018-04-16T09:51:08.488Z,17.10
2018-04-16T09:53:36.079Z,17.20
2018-04-16T09:56:03.672Z,17.20
2018-04-16T09:58:32.062Z,17.30
2018-04-16T10:01:00.584Z,17.50
2018-04-16T10:03:28.185Z,17.40
2018-04-16T10:05:55.802Z,17.40
2018-04-16T10:08:23.402Z,17.40
2018-04-16T10:10:50.986Z,17.40
2018-04-16T10:13:18.603Z,17.40
2018-04-16T10:15:46.193Z,17.40
2018-04-16T10:18:13.803Z,17.70
2018-04-16T10:20:42.152Z,18.20
2018-04-16T10:23:09.756Z,18.20
2018-04-16T10:25:38.093Z,18.10
2018-04-16T10:28:05.688Z,18.10
2018-04-16T10:30:34.073Z,18.40
2018-04-16T10:33:02.437Z,18.60
2018-04-16T10:35:30.053Z,18.60
2018-04-16T10:37:57.631Z,18.50
2018-04-16T10:40:25.191Z,18.50
2018-04-16T10:42:52.847Z,18.30
2018-04-16T10:45:20.443Z,18.20
2018-04-16T10:47:48.045Z,18.20
2018-04-16T10:50:15.719Z,18.30
2018-04-16T10:52:44.108Z,18.90
2018-04-16T10:55:12.468Z,19.00
2018-04-16T10:57:41.034Z,19.00
2018-04-16T11:00:08.624Z,19.00
2018-04-16T11:02:36.212Z,19.00
2018-04-16T11:05:04.656Z,19.10
2018-04-16T11:07:32.234Z,19.10
2018-04-16T11:09:59.836Z,19.20
2018-04-16T11:12:27.438Z,19.30
2018-04-16T11:14:54.998Z,19.10
2018-04-16T11:17:22.640Z,19.00
2018-04-16T11:19:50.213Z,18.70
2018-04-16T11:22:17.783Z,18.40
2018-04-16T11:24:45.409Z,18.10
2018-04-16T11:27:13.743Z,17.70
2018-04-16T11:29:41.347Z,17.70
2018-04-16T11:32:09.001Z,17.60
2018-04-16T11:34:37.393Z,17.70
2018-04-16T11:37:04.974Z,17.70
2018-04-16T11:39:33.303Z,18.00
2018-04-16T11:42:01.211Z,17.90
2018-04-16T11:44:28.809Z,18.00
2018-04-16T11:46:56.418Z,18.10
2018-04-16T11:49:24.068Z,18.20
2018-04-16T11:51:51.675Z,18.50
2018-04-16T11:54:19.309Z,18.50
2018-04-16T11:56:46.896Z,18.60
2018-04-16T11:59:15.247Z,19.20
2018-04-16T12:01:42.870Z,19.20
2018-04-16T12:04:11.249Z,19.90
2018-04-16T12:06:39.622Z,20.10
2018-04-16T12:09:07.210Z,20.10
2018-04-16T12:11:35.564Z,20.70
2018-04-16T12:14:03.257Z,20.70
2018-04-16T12:16:31.601Z,21.30
2018-04-16T12:18:59.205Z,21.30
2018-04-16T12:21:27.583Z,20.50
2018-04-16T12:23:55.954Z,20.20
2018-04-16T12:26:24.336Z,20.10
2018-04-16T12:28:51.944Z,20.00
2018-04-16T12:31:19.525Z,20.00
2018-04-16T12:33:47.114Z,20.10
2018-04-16T12:36:14.708Z,20.00
2018-04-16T12:38:43.087Z,19.80
2018-04-16T12:41:11.467Z,19.60
2018-04-16T12:43:39.074Z,19.50
2018-04-16T12:46:06.677Z,19.60
2018-04-16T12:48:34.286Z,19.80
2018-04-16T12:51:01.915Z,19.70
2018-04-16T12:53:29.531Z,19.90
2018-04-16T12:55:57.899Z,19.90
2018-04-16T12:58:25.513Z,19.80
2018-04-16T13:00:53.084Z,20.00
2018-04-16T13:03:20.674Z,20.10
2018-04-16T13:05:49.061Z,20.60
2018-04-16T13:08:16.804Z,20.50
2018-04-16T13:10:44.408Z,20.40
2018-04-16T13:13:12.132Z,20.30
2018-04-16T13:15:39.716Z,20.10
2018-04-16T13:18:07.300Z,20.20
2018-04-16T13:20:35.665Z,20.20
2018-04-16T13:23:04.031Z,20.10
2018-04-16T13:25:31.653Z,20.10
2018-04-16T13:27:59.235Z,19.80
2018-04-16T13:30:26.876Z,19.70
2018-04-16T13:32:54.488Z,19.80
2018-04-16T13:35:22.111Z,20.30
2018-04-16T13:37:49.700Z,20.60
2018-04-16T13:40:17.933Z,20.40
2018-04-16T13:42:47.131Z,20.70
2018-04-16T13:45:15.487Z,21.10
2018-04-16T13:47:43.103Z,21.10
2018-04-16T13:50:10.707Z,21.00
2018-04-16T13:52:38.284Z,20.40
2018-04-16T13:55:05.869Z,20.00
2018-04-16T13:57:34.237Z,19.80
2018-04-16T14:00:01.853Z,19.80
2018-04-16T14:02:30.341Z,19.40
2018-04-16T14:04:57.947Z,19.10
2018-04-16T14:07:25.542Z,19.00
2018-04-16T14:09:53.908Z,19.00
2018-04-16T14:12:22.305Z,18.80
2018-04-16T14:14:50.652Z,18.80
2018-04-16T14:17:18.251Z,18.70
2018-04-16T14:19:46.609Z,18.70
2018-04-16T14:22:14.287Z,18.60
2018-04-16T14:24:41.897Z,18.80
2018-04-16T14:27:09.491Z,19.20
2018-04-16T14:29:37.109Z,19.40
2018-04-16T14:32:05.642Z,20.00
2018-04-16T14:34:33.269Z,20.00
2018-04-16T14:37:00.859Z,20.10
2018-04-16T14:39:28.464Z,20.00
2018-04-16T14:41:56.823Z,19.60
2018-04-16T14:44:24.439Z,19.60
2018-04-16T14:46:52.047Z,19.60
2018-04-16T14:49:19.668Z,19.80
2018-04-16T14:51:47.292Z,20.20
2018-04-16T14:54:14.896Z,20.60
2018-04-16T14:56:43.323Z,20.90
2018-04-16T14:59:11.732Z,20.90
2018-04-16T15:01:39.351Z,21.00
2018-04-16T15:04:06.981Z,20.90
2018-04-16T15:06:35.468Z,20.90
2018-04-16T15:09:03.080Z,20.80
2018-04-16T15:11:30.702Z,20.80
2018-04-16T15:13:59.068Z,20.30
2018-04-16T15:16:26.667Z,20.20
2018-04-16T15:18:55.010Z,19.50
2018-04-16T15:21:22.598Z,19.50
2018-04-16T15:23:50.971Z,19.00
2018-04-16T15:26:18.567Z,18.90
2018-04-16T15:28:46.179Z,19.00
2018-04-16T15:31:13.775Z,19.50
2018-04-16T15:33:42.154Z,19.70
2018-04-16T15:36:09.792Z,19.70
2018-04-16T15:38:37.362Z,19.70
2018-04-16T15:41:04.980Z,19.90
2018-04-16T15:43:32.563Z,20.30
2018-04-16T15:46:00.925Z,21.10
2018-04-16T15:48:28.548Z,21.00
2018-04-16T15:50:56.137Z,20.80
2018-04-16T15:53:24.477Z,20.50
2018-04-16T15:55:52.092Z,20.40
2018-04-16T15:58:20.445Z,20.00
2018-04-16T16:00:48.044Z,20.00
2018-04-16T16:03:15.641Z,20.20
2018-04-16T16:05:43.242Z,20.50
2018-04-16T16:08:10.859Z,20.70
2018-04-16T16:10:38.950Z,21.10
2018-04-16T16:13:06.503Z,21.50
2018-04-16T16:15:34.073Z,21.70
2018-04-16T16:18:01.685Z,22.00
2018-04-16T16:20:29.288Z,22.20
2018-04-16T16:22:56.875Z,22.20
2018-04-16T16:25:24.460Z,21.80
2018-04-16T16:27:52.097Z,21.20
2018-04-16T16:30:19.660Z,20.70
2018-04-16T16:32:47.244Z,20.30
2018-04-16T16:35:14.838Z,20.10
2018-04-16T16:37:42.468Z,19.80
2018-04-16T16:40:10.044Z,19.50
2018-04-16T16:42:37.606Z,19.10
2018-04-16T16:45:05.212Z,18.70
2018-04-16T16:47:33.582Z,18.30
2018-04-16T16:50:01.769Z,18.30
2018-04-16T16:52:29.334Z,18.30
2018-04-16T16:54:58.069Z,18.00
2018-04-16T16:57:25.679Z,18.00
2018-04-16T16:59:54.066Z,17.80
2018-04-16T17:02:21.696Z,17.80
2018-04-16T17:04:49.272Z,17.80
2018-04-16T17:07:16.858Z,17.70
2018-04-16T17:09:44.850Z,17.70
2018-04-16T17:12:12.428Z,17.60
2018-04-16T17:14:40.777Z,17.50
2018-04-16T17:17:08.779Z,17.40
2018-04-16T17:19:36.377Z,17.40
2018-04-16T17:22:03.961Z,17.30
2018-04-16T17:24:31.554Z,17.20
2018-04-16T17:26:59.174Z,17.10
2018-04-16T17:29:26.761Z,17.00
2018-04-16T17:31:54.358Z,16.90
2018-04-16T17:34:21.955Z,16.80
2018-04-16T17:36:50.213Z,16.70
2018-04-16T17:39:17.788Z,16.60
2018-04-16T17:41:45.388Z,16.60
2018-04-16T17:44:12.962Z,16.50
2018-04-16T17:46:41.041Z,16.50
2018-04-16T17:49:08.619Z,16.40
2018-04-16T17:51:36.235Z,16.30
2018-04-16T17:54:03.873Z,16.20
2018-04-16T17:56:31.508Z,16.20
2018-04-16T17:58:59.149Z,16.20
2018-04-16T18:01:26.740Z,16.10
2018-04-16T18:03:54.337Z,16.00
2018-04-16T18:06:22.713Z,15.90
2018-04-16T18:08:50.287Z,15.90
2018-04-16T18:11:18.630Z,15.80
2018-04-16T18:13:46.200Z,15.80
2018-04-16T18:16:13.772Z,15.80
2018-04-16T18:18:41.392Z,15.70
2018-04-16T18:21:08.966Z,15.60
2018-04-16T18:23:36.570Z,15.60
2018-04-16T18:26:04.161Z,15.50
2018-04-16T18:28:31.773Z,15.50
2018-04-16T18:30:59.355Z,15.40
2018-04-16T18:33:26.925Z,15.40
2018-04-16T18:35:54.720Z,15.30
2018-04-16T18:38:22.286Z,15.20
2018-04-16T18:40:49.874Z,15.10
2018-04-16T18:43:17.448Z,15.10
2018-04-16T18:45:44.986Z,14.90
2018-04-16T18:48:13.378Z,14.80
2018-04-16T18:50:41.710Z,14.70
2018-04-16T18:53:09.452Z,14.80
2018-04-16T18:55:37.139Z,14.70
2018-04-16T18:58:08.013Z,14.60
2018-04-16T19:00:36.378Z,14.50
2018-04-16T19:03:03.971Z,14.50
2018-04-16T19:05:32.326Z,14.30
2018-04-16T19:07:59.900Z,14.20
2018-04-16T19:10:27.488Z,14.20
2018-04-16T19:12:55.057Z,14.10
2018-04-16T19:15:22.662Z,14.10
2018-04-16T19:17:57.752Z,14.00
2018-04-16T19:20:31.755Z,13.70
2018-04-16T19:22:59.318Z,13.70
2018-04-16T19:25:26.903Z,13.60
2018-04-16T19:28:00.246Z,13.60
2018-04-16T19:30:27.836Z,13.50
2018-04-16T19:33:01.072Z,13.40
2018-04-16T19:35:28.630Z,13.40
2018-04-16T19:37:56.196Z,13.30
2018-04-16T19:40:23.813Z,13.30
2018-04-16T19:42:52.012Z,13.20
2018-04-16T19:45:19.608Z,13.20
2018-04-16T19:47:47.178Z,13.20
2018-04-16T19:50:14.743Z,13.10
2018-04-16T19:52:42.333Z,13.00
2018-04-16T19:55:09.907Z,12.90
2018-04-16T19:57:43.160Z,12.80
2018-04-16T20:00:10.757Z,12.80
2018-04-16T20:02:43.959Z,12.70
2018-04-16T20:05:11.638Z,12.60
2018-04-16T20:07:39.209Z,12.50
2018-04-16T20:10:06.839Z,12.50
2018-04-16T20:12:34.393Z,12.40
2018-04-16T20:15:02.417Z,12.30
2018-04-16T20:17:30.254Z,12.20
2018-04-16T20:19:58.518Z,12.20
2018-04-16T20:22:26.092Z,12.10
2018-04-16T20:24:53.837Z,12.10
2018-04-16T20:27:21.490Z,12.00
2018-04-16T20:29:49.855Z,12.00
2018-04-16T20:32:18.201Z,11.90
2018-04-16T20:34:45.790Z,11.90
2018-04-16T20:37:13.384Z,11.80
2018-04-16T20:39:41.721Z,11.70
2018-04-16T20:42:09.312Z,11.70
2018-04-16T20:44:36.895Z,11.70
2018-04-16T20:47:05.293Z,11.70
2018-04-16T20:49:32.898Z,11.70
2018-04-16T20:52:00.490Z,11.60
2018-04-16T20:54:28.053Z,11.60
2018-04-16T20:56:55.637Z,11.60
2018-04-16T20:59:23.981Z,11.60
2018-04-16T21:01:51.544Z,11.50
2018-04-16T21:04:19.471Z,11.50
2018-04-16T21:06:47.878Z,11.40
2018-04-16T21:09:15.472Z,11.40
2018-04-16T21:11:43.088Z,11.40
2018-04-16T21:14:10.659Z,11.40
2018-04-16T21:16:39.523Z,11.30
2018-04-16T21:19:07.113Z,11.30
2018-04-16T21:21:34.691Z,11.20
2018-04-16T21:24:02.297Z,11.20
2018-04-16T21:26:29.891Z,11.10
2018-04-16T21:28:58.322Z,11.10
2018-04-16T21:31:25.882Z,11.10
2018-04-16T21:33:53.477Z,11.10
2018-04-16T21:36:21.312Z,11.00
2018-04-16T21:38:49.077Z,11.00
2018-04-16T21:41:16.653Z,10.90
2018-04-16T21:43:44.257Z,10.90
2018-04-16T21:46:11.856Z,10.80
2018-04-16T21:48:39.422Z,10.80
2018-04-16T21:51:07.029Z,10.70
2018-04-16T21:53:35.057Z,10.70
2018-04-16T21:56:02.700Z,10.70
2018-04-16T21:58:30.256Z,10.60
2018-04-16T22:00:59.619Z,10.50
2018-04-16T22:03:28.023Z,10.40
2018-04-16T22:05:55.594Z,10.40
2018-04-16T22:08:23.194Z,10.30
2018-04-16T22:10:52.248Z,10.20
2018-04-16T22:13:19.824Z,10.20
2018-04-16T22:15:47.481Z,10.20
2018-04-16T22:18:15.056Z,10.20
2018-04-16T22:20:44.143Z,10.20
2018-04-16T22:23:11.749Z,10.20
2018-04-16T22:25:39.315Z,10.10
2018-04-16T22:28:06.889Z,10.10
2018-04-16T22:30:35.226Z,10.00
2018-04-16T22:33:02.798Z,10.00
2018-04-16T22:35:31.669Z,10.00
2018-04-16T22:37:59.240Z,9.90
2018-04-16T22:40:26.802Z,9.90
2018-04-16T22:42:54.368Z,9.80
2018-04-16T22:45:21.916Z,9.80
2018-04-16T22:47:49.481Z,9.70
2018-04-16T22:50:17.055Z,9.70
2018-04-16T22:52:44.614Z,9.60
2018-04-16T22:55:12.608Z,9.50
2018-04-16T22:57:40.165Z,9.50
2018-04-16T23:00:07.768Z,9.50
2018-04-16T23:02:35.360Z,9.50
2018-04-16T23:05:02.959Z,9.50
2018-04-16T23:07:30.528Z,9.40
2018-04-16T23:10:00.347Z,9.40
2018-04-16T23:12:29.054Z,9.40
2018-04-16T23:14:56.610Z,9.40
2018-04-16T23:17:24.176Z,9.30
2018-04-16T23:19:53.113Z,9.30
2018-04-16T23:22:21.446Z,9.30
2018-04-16T23:24:49.031Z,9.30
2018-04-16T23:27:16.622Z,9.20
2018-04-16T23:29:44.974Z,9.20
2018-04-16T23:32:12.539Z,9.20
2018-04-16T23:34:40.156Z,9.20
2018-04-16T23:37:07.728Z,9.10
2018-04-16T23:39:35.291Z,9.10
2018-04-16T23:42:02.862Z,9.10
2018-04-16T23:44:30.431Z,9.10
2018-04-16T23:46:57.994Z,9.00
2018-04-16T23:49:25.562Z,9.00
2018-04-16T23:51:54.624Z,9.00
2018-04-16T23:54:22.988Z,8.90
2018-04-16T23:56:50.565Z,8.90
2018-04-16T23:59:20.270Z,8.80
